createdAt,value
2018-08-06T00:00:41.804Z,35.20
2018-08-06T00:03:07.860Z,35.26
2018-08-06T00:05:33.995Z,35.30
2018-08-06T00:08:00.216Z,35.99
2018-08-06T00:10:26.340Z,34.30
2018-08-06T00:12:52.435Z,34.73
2018-08-06T00:15:18.509Z,36.07
2018-08-06T00:17:44.616Z,35.31
2018-08-06T00:20:10.740Z,35.72
2018-08-06T00:22:36.814Z,35.24
2018-08-06T00:25:02.914Z,35.37
2018-08-06T00:27:29.032Z,35.63
2018-08-06T00:29:55.089Z,34.89
2018-08-06T00:32:21.664Z,34.98
2018-08-06T00:34:47.783Z,35.57
2018-08-06T00:37:13.861Z,35.91
2018-08-06T00:39:40.012Z,35.74
2018-08-06T00:42:06.731Z,35.91
2018-08-06T00:44:32.828Z,36.43
2018-08-06T00:46:59.013Z,35.85
2018-08-06T00:49:25.236Z,34.67
2018-08-06T00:51:51.332Z,35.65
2018-08-06T00:54:17.453Z,35.41
2018-08-06T00:56:43.602Z,35.32
2018-08-06T00:59:09.732Z,35.12
2018-08-06T01:01:35.928Z,35.68
2018-08-06T01:04:02.022Z,35.02
2018-08-06T01:06:28.101Z,34.95
2018-08-06T01:08:54.229Z,35.57
2018-08-06T01:11:20.999Z,36.41
2018-08-06T01:13:47.097Z,37.32
2018-08-06T01:16:13.259Z,36.23
2018-08-06T01:18:39.303Z,37.51
2018-08-06T01:21:05.406Z,37.55
2018-08-06T01:23:31.453Z,37.10
2018-08-06T01:25:57.558Z,36.13
2018-08-06T01:28:23.634Z,36.01
2018-08-06T01:30:49.678Z,36.12
2018-08-06T01:33:15.743Z,35.39
2018-08-06T01:35:41.794Z,35.74
2018-08-06T01:38:07.834Z,37.16
2018-08-06T01:40:33.953Z,36.56
2018-08-06T01:43:00.016Z,35.90
2018-08-06T01:45:26.077Z,37.02
2018-08-06T01:47:52.221Z,36.98
2018-08-06T01:50:18.319Z,36.40
2018-08-06T01:52:44.415Z,36.31
2018-08-06T01:55:10.473Z,36.78
2018-08-06T01:57:36.540Z,35.72
2018-08-06T02:00:02.641Z,35.62
2018-08-06T02:02:28.778Z,34.99
2018-08-06T02:04:54.956Z,36.45
2018-08-06T02:07:21.064Z,37.32
2018-08-06T02:09:47.174Z,37.40
2018-08-06T02:12:13.253Z,36.54
2018-08-06T02:14:39.329Z,36.70
2018-08-06T02:17:05.417Z,36.74
2018-08-06T02:19:31.531Z,36.52
2018-08-06T02:21:57.611Z,37.13
2018-08-06T02:24:23.726Z,37.03
2018-08-06T02:26:49.873Z,37.79
2018-08-06T02:29:16.013Z,38.30
2018-08-06T02:31:42.094Z,38.84
2018-08-06T02:34:08.206Z,36.76
2018-08-06T02:36:34.276Z,36.75
2018-08-06T02:39:00.368Z,38.40
2018-08-06T02:41:26.414Z,37.56
2018-08-06T02:43:52.543Z,37.55
2018-08-06T02:46:18.714Z,37.29
2018-08-06T02:48:44.873Z,38.36
2018-08-06T02:51:10.945Z,37.62
2018-08-06T02:53:42.558Z,38.63
2018-08-06T02:56:08.634Z,38.46
2018-08-06T02:58:34.745Z,38.93
2018-08-06T03:01:00.882Z,38.02
2018-08-06T03:03:27.008Z,38.09
2018-08-06T03:05:53.109Z,38.34
2018-08-06T03:08:19.133Z,37.63
2018-08-06T03:10:45.227Z,39.13
2018-08-06T03:25:48.926Z,37.96
2018-08-06T03:28:14.979Z,38.18
2018-08-06T03:30:41.134Z,38.87
2018-08-06T03:33:07.257Z,38.96
2018-08-06T03:35:33.373Z,38.52
2018-08-06T03:37:59.509Z,37.90
2018-08-06T03:40:25.681Z,37.50
2018-08-06T03:42:51.805Z,37.88
2018-08-06T03:45:17.958Z,38.42
2018-08-06T03:47:44.070Z,39.05
2018-08-06T03:50:10.178Z,39.24
2018-08-06T03:52:37.162Z,39.50
2018-08-06T03:55:03.242Z,39.66
2018-08-06T03:57:29.328Z,38.80
2018-08-06T04:02:28.525Z,39.53
2018-08-06T04:04:54.591Z,38.74
2018-08-06T04:07:20.656Z,39.66
2018-08-06T04:09:46.740Z,39.28
2018-08-06T04:12:12.782Z,39.40
2018-08-06T04:14:38.909Z,40.32
2018-08-06T04:17:04.988Z,40.04
2018-08-06T04:19:31.034Z,38.16
2018-08-06T04:21:57.099Z,39.08
2018-08-06T04:24:23.193Z,38.86
2018-08-06T04:26:49.242Z,40.78
2018-08-06T04:29:15.270Z,39.62
2018-08-06T04:31:41.344Z,39.68
2018-08-06T04:34:07.447Z,39.76
2018-08-06T04:36:33.565Z,39.74
2018-08-06T04:38:59.731Z,39.13
2018-08-06T04:41:25.863Z,38.27
2018-08-06T04:43:52.011Z,38.64
2018-08-06T04:46:18.093Z,38.32
2018-08-06T04:48:44.127Z,39.32
2018-08-06T04:51:10.226Z,38.74
2018-08-06T04:53:36.318Z,37.46
2018-08-06T04:56:02.405Z,38.50
2018-08-06T04:58:28.548Z,37.76
2018-08-06T05:00:54.633Z,37.90
2018-08-06T05:03:20.711Z,37.52
2018-08-06T05:05:46.793Z,37.53
2018-08-06T05:08:12.861Z,36.86
2018-08-06T05:10:38.946Z,37.32
2018-08-06T05:13:05.041Z,36.84
2018-08-06T05:15:31.124Z,37.95
2018-08-06T05:17:57.216Z,38.62
2018-08-06T05:20:23.285Z,38.89
2018-08-06T05:22:49.352Z,39.03
2018-08-06T05:25:15.446Z,38.36
2018-08-06T05:27:41.539Z,37.95
2018-08-06T05:30:07.670Z,37.33
2018-08-06T05:32:33.805Z,37.45
2018-08-06T05:34:59.871Z,37.67
2018-08-06T05:37:26.032Z,37.81
2018-08-06T05:39:52.144Z,35.69
2018-08-06T05:42:18.154Z,35.76
2018-08-06T05:44:44.234Z,36.46
2018-08-06T05:47:10.407Z,35.94
2018-08-06T05:49:36.492Z,35.54
2018-08-06T05:52:02.636Z,35.40
2018-08-06T05:54:28.766Z,35.04
2018-08-06T05:56:54.861Z,35.32
2018-08-06T05:59:21.002Z,35.19
2018-08-06T06:01:47.216Z,34.95
2018-08-06T06:04:13.326Z,34.98
2018-08-06T06:06:39.605Z,33.99
2018-08-06T06:09:05.675Z,33.83
2018-08-06T06:11:31.802Z,34.71
2018-08-06T06:13:57.969Z,33.72
2018-08-06T06:16:24.097Z,34.83
2018-08-06T06:18:50.210Z,35.18
2018-08-06T06:21:16.396Z,34.02
2018-08-06T06:23:42.492Z,33.99
2018-08-06T06:26:08.725Z,33.62
2018-08-06T06:28:34.848Z,32.54
2018-08-06T06:31:00.918Z,32.53
2018-08-06T06:38:32.060Z,32.68
2018-08-06T06:40:58.163Z,32.18
2018-08-06T06:43:24.339Z,31.67
2018-08-06T06:45:51.100Z,32.10
2018-08-06T06:48:18.831Z,32.71
2018-08-06T06:50:45.349Z,31.72
2018-08-06T06:53:11.809Z,31.63
2018-08-06T06:55:38.543Z,31.64
2018-08-06T06:58:05.651Z,30.79
2018-08-06T07:00:31.931Z,31.97
2018-08-06T07:02:58.351Z,31.14
2018-08-06T07:05:24.663Z,31.49
2018-08-06T07:07:50.962Z,31.67
2018-08-06T07:10:17.226Z,30.27
2018-08-06T07:12:43.412Z,31.80
2018-08-06T07:15:09.484Z,31.78
2018-08-06T07:35:18.278Z,29.77
2018-08-06T07:47:51.482Z,30.68
2018-08-06T07:50:17.721Z,29.75
2018-08-06T07:52:43.985Z,29.83
2018-08-06T07:55:10.199Z,29.04
2018-08-06T07:57:36.348Z,30.95
2018-08-06T08:00:03.429Z,30.43
2018-08-06T08:02:29.596Z,28.98
2018-08-06T08:04:55.964Z,28.33
2018-08-06T08:07:22.181Z,29.40
2018-08-06T08:09:48.306Z,29.29
2018-08-06T08:12:15.178Z,29.32
2018-08-06T08:14:41.258Z,29.15
2018-08-06T08:17:07.412Z,28.38
2018-08-06T08:19:33.562Z,27.92
2018-08-06T08:21:59.635Z,27.82
2018-08-06T08:24:25.776Z,28.38
2018-08-06T08:26:51.869Z,27.45
2018-08-06T08:29:18.019Z,28.74
2018-08-06T08:31:44.138Z,29.30
2018-08-06T08:34:10.199Z,27.48
2018-08-06T09:01:49.753Z,30.04
2018-08-06T09:04:16.545Z,29.43
2018-08-06T09:06:42.565Z,29.50
2018-08-06T09:09:08.629Z,31.13
2018-08-06T09:11:34.753Z,31.22
2018-08-06T09:14:00.866Z,29.94
2018-08-06T09:16:27.072Z,30.31
2018-08-06T09:18:53.222Z,29.74
2018-08-06T09:21:19.370Z,30.70
2018-08-06T09:23:45.556Z,30.22
2018-08-06T09:26:11.750Z,30.33
2018-08-06T09:28:38.554Z,27.61
2018-08-06T09:31:05.309Z,30.54
2018-08-06T09:33:31.768Z,30.36
2018-08-06T09:35:58.619Z,29.98
2018-08-06T09:38:25.108Z,30.66
2018-08-06T09:40:51.435Z,30.02
2018-08-06T09:43:17.832Z,30.09
2018-08-06T09:45:45.108Z,30.05
2018-08-06T09:48:11.587Z,29.83
2018-08-06T09:50:37.871Z,31.39
2018-08-06T09:53:04.583Z,30.39
2018-08-06T09:55:31.485Z,29.83
2018-08-06T09:57:57.960Z,31.21
2018-08-06T10:00:25.093Z,28.70
2018-08-06T10:02:51.896Z,30.18
2018-08-06T10:05:18.345Z,29.31
2018-08-06T10:07:45.233Z,29.93
2018-08-06T10:10:11.819Z,30.15
2018-08-06T10:12:38.294Z,28.83
2018-08-06T10:15:04.990Z,28.49
2018-08-06T10:17:31.256Z,29.94
2018-08-06T10:19:57.909Z,29.23
2018-08-06T10:22:24.066Z,30.31
2018-08-06T10:24:50.409Z,28.13
2018-08-06T10:27:16.739Z,28.44
2018-08-06T10:29:42.922Z,28.67
2018-08-06T10:32:09.142Z,29.27
2018-08-06T10:34:36.648Z,30.65
2018-08-06T10:37:02.875Z,30.24
2018-08-06T10:39:29.186Z,30.32
2018-08-06T10:41:55.731Z,29.46
2018-08-06T10:44:21.952Z,30.81
2018-08-06T10:46:48.176Z,29.52
2018-08-06T10:49:14.500Z,30.82
2018-08-06T10:51:40.765Z,29.24
2018-08-06T10:54:07.218Z,29.87
2018-08-06T10:56:33.458Z,29.28
2018-08-06T10:58:59.570Z,29.22
2018-08-06T11:01:25.656Z,29.75
2018-08-06T11:03:51.768Z,29.54
2018-08-06T11:06:19.015Z,30.59
2018-08-06T11:08:45.960Z,30.45
2018-08-06T11:11:12.312Z,30.55
2018-08-06T11:13:38.426Z,30.46
2018-08-06T11:16:04.556Z,30.31
2018-08-06T11:18:30.654Z,30.12
2018-08-06T11:20:56.812Z,29.22
2018-08-06T11:23:22.943Z,30.58
2018-08-06T11:25:49.054Z,30.72
2018-08-06T11:28:15.215Z,30.53
2018-08-06T11:30:41.374Z,29.75
2018-08-06T11:33:08.537Z,29.93
2018-08-06T11:35:34.740Z,29.72
2018-08-06T11:38:01.589Z,30.73
2018-08-06T11:40:27.733Z,29.97
2018-08-06T11:42:53.903Z,29.77
2018-08-06T11:45:20.014Z,30.94
2018-08-06T11:47:46.463Z,30.12
2018-08-06T11:50:12.575Z,30.60
2018-08-06T11:52:38.681Z,31.01
2018-08-06T11:55:04.859Z,30.15
2018-08-06T11:57:30.955Z,30.11
2018-08-06T11:59:57.112Z,28.25
2018-08-06T12:02:23.204Z,29.61
2018-08-06T12:04:49.451Z,27.79
2018-08-06T12:07:15.938Z,29.16
2018-08-06T12:09:42.038Z,29.23
2018-08-06T12:12:08.165Z,30.18
2018-08-06T12:14:34.339Z,29.91
2018-08-06T12:17:01.082Z,29.07
2018-08-06T12:19:27.599Z,29.20
2018-08-06T12:21:53.714Z,30.56
2018-08-06T12:24:21.022Z,30.64
2018-08-06T12:26:47.958Z,29.93
2018-08-06T12:29:14.926Z,29.88
2018-08-06T12:31:42.264Z,30.69
2018-08-06T12:49:17.193Z,29.68
2018-08-06T12:51:43.395Z,30.36
2018-08-06T12:54:09.934Z,28.10
2018-08-06T12:56:36.193Z,27.47
2018-08-06T12:59:03.330Z,25.83
2018-08-06T13:01:30.491Z,25.89
2018-08-06T13:03:57.254Z,27.97
2018-08-06T13:06:23.985Z,29.41
2018-08-06T13:08:50.350Z,29.36
2018-08-06T13:11:16.717Z,29.23
2018-08-06T13:13:42.901Z,29.76
2018-08-06T13:16:09.037Z,28.87
2018-08-06T13:18:36.571Z,29.44
2018-08-06T13:21:02.703Z,29.64
2018-08-06T13:23:29.862Z,29.06
2018-08-06T13:25:56.116Z,28.66
2018-08-06T13:28:22.306Z,28.97
2018-08-06T13:30:48.604Z,29.46
2018-08-06T13:48:26.893Z,24.87
2018-08-06T13:50:52.975Z,27.54
2018-08-06T13:53:19.091Z,26.61
2018-08-06T13:55:45.542Z,25.72
2018-08-06T13:58:11.739Z,27.48
2018-08-06T14:00:38.106Z,26.98
2018-08-06T14:03:04.289Z,28.37
2018-08-06T14:05:30.835Z,27.98
2018-08-06T14:07:56.898Z,28.08
2018-08-06T14:10:22.970Z,24.35
2018-08-06T14:12:49.054Z,28.28
2018-08-06T14:15:15.095Z,24.38
2018-08-06T14:17:41.179Z,26.51
2018-08-06T14:20:07.209Z,25.00
2018-08-06T14:22:33.319Z,27.12
2018-08-06T14:24:59.470Z,28.02
2018-08-06T14:27:25.549Z,27.71
2018-08-06T14:29:51.751Z,27.67
2018-08-06T14:32:17.856Z,27.67
2018-08-06T14:34:43.963Z,23.28
2018-08-06T14:37:10.081Z,26.88
2018-08-06T14:39:36.133Z,27.97
2018-08-06T14:42:02.212Z,27.67
2018-08-06T14:44:28.369Z,24.42
2018-08-06T14:46:54.454Z,27.91
2018-08-06T14:49:20.585Z,26.95
2018-08-06T14:51:46.704Z,27.34
2018-08-06T14:54:12.847Z,27.44
2018-08-06T14:56:38.917Z,27.04
2018-08-06T14:59:04.959Z,27.18
2018-08-06T15:01:30.998Z,27.76
2018-08-06T15:03:57.045Z,24.80
2018-08-06T15:06:23.087Z,27.37
2018-08-06T15:08:49.270Z,27.82
2018-08-06T15:11:15.502Z,27.65
2018-08-06T15:13:41.720Z,27.35
2018-08-06T15:16:07.838Z,27.70
2018-08-06T15:18:33.924Z,27.25
2018-08-06T15:21:00.050Z,27.08
2018-08-06T15:23:26.177Z,27.82
2018-08-06T15:25:52.375Z,27.09
2018-08-06T15:28:18.482Z,27.24
2018-08-06T15:30:44.584Z,27.29
2018-08-06T15:33:10.806Z,28.02
2018-08-06T15:35:36.903Z,27.25
2018-08-06T15:38:03.162Z,27.71
2018-08-06T15:40:29.356Z,27.04
2018-08-06T15:42:55.386Z,28.07
2018-08-06T15:45:21.452Z,24.48
2018-08-06T15:47:48.446Z,24.66
2018-08-06T15:50:14.556Z,25.98
2018-08-06T15:52:40.619Z,26.91
2018-08-06T15:55:06.779Z,24.04
2018-08-06T15:57:32.810Z,26.71
2018-08-06T16:02:31.299Z,26.89
2018-08-06T16:04:57.402Z,26.31
2018-08-06T16:07:23.740Z,26.98
2018-08-06T16:09:49.952Z,27.74
2018-08-06T16:12:16.123Z,24.49
2018-08-06T16:14:42.445Z,24.81
2018-08-06T16:17:08.567Z,27.20
2018-08-06T16:19:34.711Z,26.28
2018-08-06T16:22:01.198Z,24.55
2018-08-06T16:24:27.328Z,24.41
2018-08-06T16:26:53.450Z,26.83
2018-08-06T16:29:19.485Z,23.92
2018-08-06T16:31:46.236Z,26.60
2018-08-06T16:34:12.266Z,26.74
2018-08-06T16:36:38.320Z,26.48
2018-08-06T16:39:04.353Z,26.80
2018-08-06T16:41:30.432Z,27.09
2018-08-06T16:43:56.474Z,24.53
2018-08-06T16:46:22.606Z,27.35
2018-08-06T16:48:48.645Z,27.07
2018-08-06T16:51:14.667Z,26.25
2018-08-06T16:53:40.688Z,25.27
2018-08-06T16:56:06.772Z,25.05
2018-08-06T16:58:32.816Z,25.56
2018-08-06T17:00:59.019Z,25.77
2018-08-06T17:03:24.975Z,26.21
2018-08-06T17:05:51.033Z,26.68
2018-08-06T17:08:17.158Z,26.87
2018-08-06T17:10:43.226Z,23.84
2018-08-06T17:13:09.344Z,23.11
2018-08-06T17:15:35.440Z,24.42
2018-08-06T17:18:01.523Z,24.92
2018-08-06T17:20:28.631Z,26.65
2018-08-06T17:22:54.686Z,25.88
2018-08-06T17:25:20.750Z,23.22
2018-08-06T17:27:46.861Z,23.33
2018-08-06T17:50:23.217Z,25.85
2018-08-06T17:52:49.343Z,24.03
2018-08-06T17:55:15.456Z,26.59
2018-08-06T17:57:41.519Z,25.98
2018-08-06T18:00:07.623Z,26.97
2018-08-06T18:02:33.714Z,25.51
2018-08-06T18:04:59.783Z,27.59
2018-08-06T18:07:25.898Z,27.61
2018-08-06T18:09:51.970Z,25.99
2018-08-06T18:12:18.032Z,27.30
2018-08-06T18:17:18.211Z,25.75
2018-08-06T18:24:50.815Z,24.95
2018-08-06T18:27:16.916Z,26.95
2018-08-06T18:29:43.011Z,25.38
2018-08-06T18:34:41.426Z,25.49
2018-08-06T18:37:07.554Z,24.90
2018-08-06T18:39:33.664Z,25.45
2018-08-06T18:41:59.825Z,26.20
2018-08-06T18:46:58.288Z,25.20
2018-08-06T18:49:24.375Z,25.63
2018-08-06T18:51:50.425Z,25.58
2018-08-06T18:54:16.518Z,24.81
2018-08-06T18:56:42.685Z,25.72
2018-08-06T18:59:08.775Z,24.79
2018-08-06T19:01:34.919Z,26.38
2018-08-06T19:04:01.015Z,25.20
2018-08-06T19:06:27.060Z,26.25
2018-08-06T19:08:53.176Z,26.14
2018-08-06T19:28:59.139Z,26.02
2018-08-06T19:33:56.988Z,26.25
2018-08-06T19:36:28.873Z,27.27
2018-08-06T19:38:55.028Z,27.33
2018-08-06T19:41:21.063Z,26.87
2018-08-06T19:43:47.117Z,26.32
2018-08-06T19:46:13.196Z,27.08
2018-08-06T20:06:18.545Z,27.96
2018-08-06T20:28:56.338Z,28.48
2018-08-06T20:31:22.410Z,29.03
2018-08-06T20:33:48.466Z,27.76
2018-08-06T20:38:49.278Z,27.54
2018-08-06T20:41:15.298Z,27.84
2018-08-06T20:43:41.313Z,28.31
2018-08-06T20:46:07.386Z,28.40
2018-08-06T20:48:33.511Z,27.99
2018-08-06T20:50:59.504Z,29.36
2018-08-06T20:53:25.548Z,28.41
2018-08-06T20:55:51.665Z,28.98
2018-08-06T21:31:07.878Z,31.82
2018-08-06T21:33:34.052Z,32.33
2018-08-06T21:36:00.141Z,32.04
2018-08-06T21:38:26.195Z,32.53
2018-08-06T21:40:52.315Z,31.41
2018-08-06T21:43:18.476Z,31.68
2018-08-06T21:45:44.604Z,32.04
2018-08-06T21:48:10.633Z,31.24
2018-08-06T21:50:36.824Z,32.35
2018-08-06T21:53:02.827Z,32.70
2018-08-06T21:55:29.043Z,32.01
2018-08-06T21:57:55.100Z,32.40
